sensor_id;sensor_type;location;lat;lon;timestamp;pressure;altitude;pressure_sealevel;temperature;humidity
40205;BME280;26963;42.666;23.366;2023-03-14T00:02:18;95155.63;;;5.99;36.51
40205;BME280;26963;42.666;23.366;2023-03-14T00:04:44;95184.28;;;5.97;37.00
40205;BME280;26963;42.666;23.366;2023-03-14T00:07:11;95147.50;;;5.79;37.41
40205;BME280;26963;42.666;23.366;2023-03-14T00:09:36;95156.56;;;5.83;37.67
40205;BME280;26963;42.666;23.366;2023-03-14T00:12:02;95117.09;;;5.54;37.98
40205;BME280;26963;42.666;23.366;2023-03-14T00:14:29;95145.69;;;5.84;37.72
40205;BME280;26963;42.666;23.366;2023-03-14T00:16:54;95125.72;;;5.71;37.95
40205;BME280;26963;42.666;23.366;2023-03-14T00:19:20;95053.78;;;5.30;37.74
40205;BME280;26963;42.666;23.366;2023-03-14T00:21:46;95052.22;;;5.39;37.75
40205;BME280;26963;42.666;23.366;2023-03-14T00:24:12;95059.22;;;5.56;37.59
40205;BME280;26963;42.666;23.366;2023-03-14T00:26:37;95092.31;;;5.86;37.73
40205;BME280;26963;42.666;23.366;2023-03-14T00:29:03;95121.75;;;6.22;37.38
40205;BME280;26963;42.666;23.366;2023-03-14T00:31:28;95125.75;;;6.25;37.50
40205;BME280;26963;42.666;23.366;2023-03-14T00:33:54;95077.28;;;6.02;37.77
40205;BME280;26963;42.666;23.366;2023-03-14T00:36:20;95117.53;;;6.31;37.57
40205;BME280;26963;42.666;23.366;2023-03-14T00:38:48;95084.78;;;6.15;37.47
40205;BME280;26963;42.666;23.366;2023-03-14T00:41:17;95108.22;;;6.29;37.40
40205;BME280;26963;42.666;23.366;2023-03-14T00:43:44;95053.56;;;5.95;37.53
40205;BME280;26963;42.666;23.366;2023-03-14T00:46:09;94940.69;;;5.14;37.68
40205;BME280;26963;42.666;23.366;2023-03-14T00:48:35;95040.75;;;5.71;38.25
40205;BME280;26963;42.666;23.366;2023-03-14T00:51:03;95112.91;;;6.06;38.53
40205;BME280;26963;42.666;23.366;2023-03-14T00:53:29;95087.53;;;5.83;38.67
40205;BME280;26963;42.666;23.366;2023-03-14T00:55:54;95105.00;;;5.74;38.94
40205;BME280;26963;42.666;23.366;2023-03-14T00:58:20;95071.84;;;5.33;39.40
40205;BME280;26963;42.666;23.366;2023-03-14T01:00:46;95105.78;;;5.31;40.29
40205;BME280;26963;42.666;23.366;2023-03-14T01:03:12;95027.91;;;4.72;40.52
40205;BME280;26963;42.666;23.366;2023-03-14T01:05:38;95044.03;;;4.71;40.73
40205;BME280;26963;42.666;23.366;2023-03-14T01:08:04;95095.19;;;4.99;41.12
40205;BME280;26963;42.666;23.366;2023-03-14T01:10:31;95068.25;;;4.80;41.38
40205;BME280;26963;42.666;23.366;2023-03-14T01:12:59;95097.59;;;5.00;41.01
40205;BME280;26963;42.666;23.366;2023-03-14T01:15:24;95018.50;;;4.60;41.21
40205;BME280;26963;42.666;23.366;2023-03-14T01:17:50;95088.59;;;5.06;40.82
40205;BME280;26963;42.666;23.366;2023-03-14T01:20:16;95070.53;;;4.98;40.97
40205;BME280;26963;42.666;23.366;2023-03-14T01:22:43;95079.72;;;5.23;41.01
40205;BME280;26963;42.666;23.366;2023-03-14T01:25:12;95073.41;;;5.29;40.92
40205;BME280;26963;42.666;23.366;2023-03-14T01:27:38;95054.31;;;5.27;40.99
40205;BME280;26963;42.666;23.366;2023-03-14T01:30:04;95060.44;;;5.38;40.82
40205;BME280;26963;42.666;23.366;2023-03-14T01:32:30;95043.97;;;5.31;41.40
40205;BME280;26963;42.666;23.366;2023-03-14T01:34:56;95046.41;;;5.37;41.59
40205;BME280;26963;42.666;23.366;2023-03-14T01:37:22;95000.38;;;5.16;41.08
40205;BME280;26963;42.666;23.366;2023-03-14T01:39:47;95063.50;;;5.57;41.29
40205;BME280;26963;42.666;23.366;2023-03-14T01:42:14;95043.28;;;5.51;40.97
40205;BME280;26963;42.666;23.366;2023-03-14T01:47:15;95031.31;;;5.48;41.68
40205;BME280;26963;42.666;23.366;2023-03-14T01:49:41;95055.84;;;5.66;41.71
40205;BME280;26963;42.666;23.366;2023-03-14T01:54:41;95056.66;;;5.66;42.49
40205;BME280;26963;42.666;23.366;2023-03-14T01:57:14;95051.88;;;5.68;41.75
40205;BME280;26963;42.666;23.366;2023-03-14T01:59:49;94972.53;;;5.19;42.08
40205;BME280;26963;42.666;23.366;2023-03-14T02:02:18;95025.50;;;5.46;42.24
40205;BME280;26963;42.666;23.366;2023-03-14T02:04:44;95042.81;;;5.64;42.40
40205;BME280;26963;42.666;23.366;2023-03-14T02:07:15;95051.84;;;5.63;42.33
40205;BME280;26963;42.666;23.366;2023-03-14T02:09:43;95043.34;;;5.61;42.43
40205;BME280;26963;42.666;23.366;2023-03-14T02:12:11;95033.50;;;5.57;42.78
40205;BME280;26963;42.666;23.366;2023-03-14T02:14:39;95034.28;;;5.57;42.72
40205;BME280;26963;42.666;23.366;2023-03-14T02:17:06;95042.81;;;5.64;42.52
40205;BME280;26963;42.666;23.366;2023-03-14T02:19:41;95031.63;;;5.57;42.38
40205;BME280;26963;42.666;23.366;2023-03-14T02:22:12;95020.69;;;5.43;42.32
40205;BME280;26963;42.666;23.366;2023-03-14T02:25:17;95027.31;;;5.41;42.36
40205;BME280;26963;42.666;23.366;2023-03-14T02:27:49;95022.97;;;5.24;42.41
40205;BME280;26963;42.666;23.366;2023-03-14T02:30:18;95042.63;;;5.28;42.28
40205;BME280;26963;42.666;23.366;2023-03-14T02:32:47;95043.13;;;5.25;42.92
40205;BME280;26963;42.666;23.366;2023-03-14T02:35:18;95039.88;;;5.18;42.97
40205;BME280;26963;42.666;23.366;2023-03-14T02:38:00;94876.31;;;4.00;42.98
40205;BME280;26963;42.666;23.366;2023-03-14T02:40:29;95035.34;;;5.08;43.30
40205;BME280;26963;42.666;23.366;2023-03-14T02:42:54;95035.53;;;5.01;43.56
40205;BME280;26963;42.666;23.366;2023-03-14T02:47:59;95014.97;;;4.81;44.35
40205;BME280;26963;42.666;23.366;2023-03-14T02:50:29;95046.13;;;5.01;44.25
40205;BME280;26963;42.666;23.366;2023-03-14T02:52:56;95042.41;;;4.97;44.79
40205;BME280;26963;42.666;23.366;2023-03-14T02:55:22;95046.44;;;5.05;44.53
40205;BME280;26963;42.666;23.366;2023-03-14T02:57:48;95047.22;;;5.00;44.70
40205;BME280;26963;42.666;23.366;2023-03-14T03:00:14;95042.41;;;4.97;44.80
40205;BME280;26963;42.666;23.366;2023-03-14T03:02:40;95054.09;;;5.01;44.79
40205;BME280;26963;42.666;23.366;2023-03-14T03:05:06;95056.75;;;5.01;44.97
40205;BME280;26963;42.666;23.366;2023-03-14T03:07:34;95048.56;;;5.03;44.81
40205;BME280;26963;42.666;23.366;2023-03-14T03:10:00;95046.66;;;4.98;44.93
40205;BME280;26963;42.666;23.366;2023-03-14T03:12:25;95046.31;;;4.89;44.91
40205;BME280;26963;42.666;23.366;2023-03-14T03:14:51;95026.59;;;4.75;45.35
40205;BME280;26963;42.666;23.366;2023-03-14T03:17:19;95013.00;;;4.66;45.37
40205;BME280;26963;42.666;23.366;2023-03-14T03:19:44;95046.31;;;4.89;45.79
40205;BME280;26963;42.666;23.366;2023-03-14T03:22:10;95047.06;;;4.85;45.79
40205;BME280;26963;42.666;23.366;2023-03-14T03:24:36;95040.34;;;4.72;45.59
40205;BME280;26963;42.666;23.366;2023-03-14T03:27:01;95058.19;;;4.82;45.75
40205;BME280;26963;42.666;23.366;2023-03-14T03:29:27;95039.59;;;4.77;45.50
40205;BME280;26963;42.666;23.366;2023-03-14T03:31:52;95036.91;;;4.71;45.36
40205;BME280;26963;42.666;23.366;2023-03-14T03:34:18;95044.94;;;4.82;45.31
40205;BME280;26963;42.666;23.366;2023-03-14T03:36:44;95042.78;;;4.79;45.31
40205;BME280;26963;42.666;23.366;2023-03-14T03:39:09;95035.59;;;4.74;45.38
40205;BME280;26963;42.666;23.366;2023-03-14T03:41:35;94974.53;;;4.31;45.41
40205;BME280;26963;42.666;23.366;2023-03-14T03:44:00;95027.31;;;4.65;45.70
40205;BME280;26963;42.666;23.366;2023-03-14T03:46:26;95020.75;;;4.46;46.48
40205;BME280;26963;42.666;23.366;2023-03-14T03:48:58;95028.53;;;4.52;46.51
40205;BME280;26963;42.666;23.366;2023-03-14T03:51:25;95055.41;;;4.66;46.48
40205;BME280;26963;42.666;23.366;2023-03-14T03:53:50;95038.91;;;4.59;46.10
40205;BME280;26963;42.666;23.366;2023-03-14T03:56:16;95040.41;;;4.50;46.62
40205;BME280;26963;42.666;23.366;2023-03-14T03:58:42;95039.25;;;4.40;46.76
40205;BME280;26963;42.666;23.366;2023-03-14T04:01:09;95058.81;;;4.62;46.65
40205;BME280;26963;42.666;23.366;2023-03-14T04:03:36;95007.06;;;4.27;46.43
40205;BME280;26963;42.666;23.366;2023-03-14T04:06:10;95054.19;;;4.52;46.17
40205;BME280;26963;42.666;23.366;2023-03-14T04:08:36;95047.81;;;4.48;46.08
40205;BME280;26963;42.666;23.366;2023-03-14T04:11:05;94975.84;;;4.01;46.11
40205;BME280;26963;42.666;23.366;2023-03-14T04:13:30;95044.38;;;4.47;46.22
40205;BME280;26963;42.666;23.366;2023-03-14T04:15:56;95037.72;;;4.45;46.23
40205;BME280;26963;42.666;23.366;2023-03-14T04:18:22;95056.91;;;4.57;46.21
40205;BME280;26963;42.666;23.366;2023-03-14T04:20:56;95036.66;;;4.46;46.13
40205;BME280;26963;42.666;23.366;2023-03-14T04:23:23;94997.72;;;4.19;46.13
40205;BME280;26963;42.666;23.366;2023-03-14T04:25:50;94815.63;;;3.12;46.02
40205;BME280;26963;42.666;23.366;2023-03-14T04:28:16;95021.28;;;4.43;46.31
40205;BME280;26963;42.666;23.366;2023-03-14T04:30:42;95033.81;;;4.52;46.31
40205;BME280;26963;42.666;23.366;2023-03-14T04:33:08;94873.63;;;3.46;46.04
40205;BME280;26963;42.666;23.366;2023-03-14T04:35:33;95027.22;;;4.55;45.90
40205;BME280;26963;42.666;23.366;2023-03-14T04:37:59;94953.66;;;4.07;45.99
40205;BME280;26963;42.666;23.366;2023-03-14T04:40:25;94963.78;;;4.11;46.31
40205;BME280;26963;42.666;23.366;2023-03-14T04:42:50;95009.94;;;4.47;46.64
40205;BME280;26963;42.666;23.366;2023-03-14T04:45:19;95005.41;;;4.48;46.42
40205;BME280;26963;42.666;23.366;2023-03-14T04:47:44;95001.22;;;4.52;46.56
40205;BME280;26963;42.666;23.366;2023-03-14T04:50:10;95012.41;;;4.59;46.04
40205;BME280;26963;42.666;23.366;2023-03-14T04:52:36;95011.31;;;4.55;46.05
40205;BME280;26963;42.666;23.366;2023-03-14T04:55:02;95004.75;;;4.63;45.97
40205;BME280;26963;42.666;23.366;2023-03-14T04:57:27;94935.47;;;4.16;46.30
40205;BME280;26963;42.666;23.366;2023-03-14T04:59:53;94958.66;;;4.31;46.15
40205;BME280;26963;42.666;23.366;2023-03-14T05:02:19;94938.38;;;4.15;46.42
40205;BME280;26963;42.666;23.366;2023-03-14T05:04:44;95002.59;;;4.60;46.21
40205;BME280;26963;42.666;23.366;2023-03-14T05:07:10;94910.06;;;3.88;46.20
40205;BME280;26963;42.666;23.366;2023-03-14T05:09:35;94887.25;;;3.82;46.37
40205;BME280;26963;42.666;23.366;2023-03-14T05:12:01;95002.81;;;4.53;47.07
40205;BME280;26963;42.666;23.366;2023-03-14T05:14:29;94999.13;;;4.54;46.80
40205;BME280;26963;42.666;23.366;2023-03-14T05:16:54;95002.28;;;4.56;46.46
40205;BME280;26963;42.666;23.366;2023-03-14T05:19:20;95007.59;;;4.56;46.23
40205;BME280;26963;42.666;23.366;2023-03-14T05:21:45;95002.84;;;4.58;46.57
40205;BME280;26963;42.666;23.366;2023-03-14T05:24:11;94955.44;;;4.29;46.77
40205;BME280;26963;42.666;23.366;2023-03-14T05:26:36;95006.38;;;4.64;46.60
40205;BME280;26963;42.666;23.366;2023-03-14T05:29:02;94926.22;;;4.19;46.93
40205;BME280;26963;42.666;23.366;2023-03-14T05:31:27;94988.03;;;4.62;46.54
40205;BME280;26963;42.666;23.366;2023-03-14T05:33:53;94996.66;;;4.80;46.65
40205;BME280;26963;42.666;23.366;2023-03-14T05:36:18;94906.47;;;4.32;46.99
40205;BME280;26963;42.666;23.366;2023-03-14T05:38:44;94997.03;;;4.94;46.23
40205;BME280;26963;42.666;23.366;2023-03-14T05:41:09;94988.88;;;5.00;45.43
40205;BME280;26963;42.666;23.366;2023-03-14T05:43:35;94986.78;;;5.07;45.04
40205;BME280;26963;42.666;23.366;2023-03-14T05:46:00;94983.88;;;5.09;45.08
40205;BME280;26963;42.666;23.366;2023-03-14T05:48:26;95001.44;;;5.20;45.14
40205;BME280;26963;42.666;23.366;2023-03-14T05:50:56;95010.53;;;5.30;44.90
40205;BME280;26963;42.666;23.366;2023-03-14T05:53:22;95000.72;;;5.30;44.88
40205;BME280;26963;42.666;23.366;2023-03-14T05:55:47;94994.88;;;5.28;44.84
40205;BME280;26963;42.666;23.366;2023-03-14T05:58:15;94926.97;;;4.79;45.12
40205;BME280;26963;42.666;23.366;2023-03-14T06:00:41;95006.53;;;5.27;45.53
40205;BME280;26963;42.666;23.366;2023-03-14T06:03:06;94968.78;;;5.10;45.56
40205;BME280;26963;42.666;23.366;2023-03-14T06:05:32;94961.22;;;4.91;46.20
40205;BME280;26963;42.666;23.366;2023-03-14T06:07:57;94991.00;;;5.03;46.20
40205;BME280;26963;42.666;23.366;2023-03-14T06:10:23;94976.00;;;4.82;46.31
40205;BME280;26963;42.666;23.366;2023-03-14T06:12:48;94982.38;;;4.81;46.43
40205;BME280;26963;42.666;23.366;2023-03-14T06:15:14;94928.63;;;4.53;46.62
40205;BME280;26963;42.666;23.366;2023-03-14T06:17:39;94990.91;;;4.88;46.63
40205;BME280;26963;42.666;23.366;2023-03-14T06:20:05;94983.25;;;4.92;46.14
40205;BME280;26963;42.666;23.366;2023-03-14T06:22:31;94993.69;;;5.09;46.14
40205;BME280;26963;42.666;23.366;2023-03-14T06:24:56;94974.56;;;5.06;45.74
40205;BME280;26963;42.666;23.366;2023-03-14T06:27:22;94986.34;;;5.21;45.62
40205;BME280;26963;42.666;23.366;2023-03-14T06:29:47;95004.72;;;5.33;45.41
40205;BME280;26963;42.666;23.366;2023-03-14T06:32:13;95001.75;;;5.29;45.71
40205;BME280;26963;42.666;23.366;2023-03-14T06:34:38;95011.31;;;5.30;45.42
40205;BME280;26963;42.666;23.366;2023-03-14T06:37:04;94930.44;;;4.85;45.77
40205;BME280;26963;42.666;23.366;2023-03-14T06:39:29;95003.97;;;5.43;45.55
40205;BME280;26963;42.666;23.366;2023-03-14T06:41:59;94985.47;;;5.58;45.22
40205;BME280;26963;42.666;23.366;2023-03-14T06:44:25;94977.19;;;6.23;43.94
40205;BME280;26963;42.666;23.366;2023-03-14T06:46:50;94968.09;;;7.43;41.61
40205;BME280;26963;42.666;23.366;2023-03-14T06:49:16;94971.56;;;8.88;37.33
40205;BME280;26963;42.666;23.366;2023-03-14T06:51:41;94931.06;;;10.02;35.04
40205;BME280;26963;42.666;23.366;2023-03-14T06:54:07;94920.13;;;11.36;32.40
40205;BME280;26963;42.666;23.366;2023-03-14T06:56:32;94939.09;;;12.68;29.72
40205;BME280;26963;42.666;23.366;2023-03-14T06:58:58;94940.78;;;13.81;28.74
40205;BME280;26963;42.666;23.366;2023-03-14T07:01:28;94897.81;;;14.69;26.99
40205;BME280;26963;42.666;23.366;2023-03-14T07:03:55;94940.94;;;15.81;25.86
40205;BME280;26963;42.666;23.366;2023-03-14T07:06:21;94906.59;;;16.75;24.82
40205;BME280;26963;42.666;23.366;2023-03-14T07:08:47;94925.53;;;17.55;23.35
40205;BME280;26963;42.666;23.366;2023-03-14T07:11:12;94866.34;;;18.15;22.24
40205;BME280;26963;42.666;23.366;2023-03-14T07:13:38;94738.88;;;18.08;21.06
40205;BME280;26963;42.666;23.366;2023-03-14T07:16:05;94904.63;;;19.91;20.31
40205;BME280;26963;42.666;23.366;2023-03-14T07:18:30;94916.25;;;19.76;20.26
40205;BME280;26963;42.666;23.366;2023-03-14T07:20:59;94924.03;;;18.44;21.35
40205;BME280;26963;42.666;23.366;2023-03-14T07:23:25;94907.03;;;17.44;22.10
40205;BME280;26963;42.666;23.366;2023-03-14T07:25:50;94930.47;;;17.40;22.76
40205;BME280;26963;42.666;23.366;2023-03-14T07:28:19;94879.56;;;18.45;21.51
40205;BME280;26963;42.666;23.366;2023-03-14T07:30:46;94864.94;;;18.62;20.66
40205;BME280;26963;42.666;23.366;2023-03-14T07:33:12;94909.78;;;19.64;20.28
40205;BME280;26963;42.666;23.366;2023-03-14T07:35:38;94902.03;;;20.69;19.63
40205;BME280;26963;42.666;23.366;2023-03-14T07:38:03;94900.50;;;21.54;18.59
40205;BME280;26963;42.666;23.366;2023-03-14T07:40:29;94902.13;;;22.36;17.57
40205;BME280;26963;42.666;23.366;2023-03-14T07:42:54;94906.06;;;22.65;17.14
40205;BME280;26963;42.666;23.366;2023-03-14T07:45:20;94805.03;;;21.93;16.75
40205;BME280;26963;42.666;23.366;2023-03-14T07:47:46;94874.25;;;22.80;16.76
40205;BME280;26963;42.666;23.366;2023-03-14T07:50:11;94846.41;;;22.97;16.47
40205;BME280;26963;42.666;23.366;2023-03-14T07:52:37;94885.59;;;23.16;16.19
40205;BME280;26963;42.666;23.366;2023-03-14T07:55:03;94871.06;;;23.50;15.82
40205;BME280;26963;42.666;23.366;2023-03-14T07:57:28;94859.38;;;23.98;15.44
40205;BME280;26963;42.666;23.366;2023-03-14T07:59:54;94890.75;;;24.22;14.86
40205;BME280;26963;42.666;23.366;2023-03-14T08:02:19;94825.81;;;23.97;14.86
40205;BME280;26963;42.666;23.366;2023-03-14T08:04:47;94877.25;;;24.54;14.71
40205;BME280;26963;42.666;23.366;2023-03-14T08:07:13;94877.81;;;24.85;14.64
40205;BME280;26963;42.666;23.366;2023-03-14T08:09:38;94884.16;;;25.15;14.40
40205;BME280;26963;42.666;23.366;2023-03-14T08:12:04;94873.25;;;25.36;14.15
40205;BME280;26963;42.666;23.366;2023-03-14T08:14:30;94862.72;;;25.78;13.70
40205;BME280;26963;42.666;23.366;2023-03-14T08:16:56;94877.56;;;26.31;13.12
40205;BME280;26963;42.666;23.366;2023-03-14T08:19:21;94870.53;;;25.91;13.38
40205;BME280;26963;42.666;23.366;2023-03-14T08:21:47;94870.13;;;25.88;13.28
40205;BME280;26963;42.666;23.366;2023-03-14T08:24:12;94869.31;;;26.28;13.43
40205;BME280;26963;42.666;23.366;2023-03-14T08:26:38;94881.47;;;26.19;12.83
40205;BME280;26963;42.666;23.366;2023-03-14T08:29:04;94863.47;;;25.75;13.28
40205;BME280;26963;42.666;23.366;2023-03-14T08:31:30;94866.16;;;25.17;13.45
40205;BME280;26963;42.666;23.366;2023-03-14T08:33:58;94867.00;;;24.33;13.92
40205;BME280;26963;42.666;23.366;2023-03-14T08:36:24;94861.47;;;23.22;14.95
40205;BME280;26963;42.666;23.366;2023-03-14T08:38:49;94873.34;;;22.69;15.55
40205;BME280;26963;42.666;23.366;2023-03-14T08:41:15;94870.50;;;22.27;15.95
40205;BME280;26963;42.666;23.366;2023-03-14T08:43:40;94811.91;;;21.33;16.48
40205;BME280;26963;42.666;23.366;2023-03-14T08:46:06;94851.50;;;21.08;16.94
40205;BME280;26963;42.666;23.366;2023-03-14T08:48:31;94849.41;;;20.78;17.57
40205;BME280;26963;42.666;23.366;2023-03-14T08:51:07;94853.94;;;20.15;17.35
40205;BME280;26963;42.666;23.366;2023-03-14T08:53:33;94810.38;;;18.92;18.78
40205;BME280;26963;42.666;23.366;2023-03-14T08:55:59;94838.66;;;18.22;19.46
40205;BME280;26963;42.666;23.366;2023-03-14T08:58:24;94844.50;;;17.71;19.81
40205;BME280;26963;42.666;23.366;2023-03-14T09:00:50;94826.47;;;17.50;20.95
40205;BME280;26963;42.666;23.366;2023-03-14T09:03:15;94812.16;;;17.50;21.52
40205;BME280;26963;42.666;23.366;2023-03-14T09:05:41;94835.81;;;17.77;20.84
40205;BME280;26963;42.666;23.366;2023-03-14T09:08:06;94831.03;;;17.87;20.26
40205;BME280;26963;42.666;23.366;2023-03-14T09:10:32;94821.81;;;17.63;19.93
40205;BME280;26963;42.666;23.366;2023-03-14T09:12:58;94810.22;;;17.50;20.55
40205;BME280;26963;42.666;23.366;2023-03-14T09:15:24;94828.59;;;17.32;20.38
40205;BME280;26963;42.666;23.366;2023-03-14T09:17:49;94814.28;;;17.19;20.42
40205;BME280;26963;42.666;23.366;2023-03-14T09:20:15;94788.22;;;16.90;21.09
40205;BME280;26963;42.666;23.366;2023-03-14T09:22:41;94742.63;;;16.76;21.33
40205;BME280;26963;42.666;23.366;2023-03-14T09:25:07;94799.88;;;16.69;21.28
40205;BME280;26963;42.666;23.366;2023-03-14T09:27:33;94798.25;;;16.43;21.88
40205;BME280;26963;42.666;23.366;2023-03-14T09:29:58;94737.38;;;16.12;22.05
40205;BME280;26963;42.666;23.366;2023-03-14T09:32:24;94772.31;;;16.30;21.86
40205;BME280;26963;42.666;23.366;2023-03-14T09:34:49;94771.75;;;16.03;21.15
40205;BME280;26963;42.666;23.366;2023-03-14T09:37:15;94772.69;;;15.35;22.08
40205;BME280;26963;42.666;23.366;2023-03-14T09:39:45;94755.06;;;15.16;22.71
40205;BME280;26963;42.666;23.366;2023-03-14T09:42:14;94570.31;;;13.87;22.77
40205;BME280;26963;42.666;23.366;2023-03-14T09:47:18;94756.63;;;15.18;22.94
40205;BME280;26963;42.666;23.366;2023-03-14T09:49:45;94746.28;;;15.49;23.10
40205;BME280;26963;42.666;23.366;2023-03-14T09:52:32;94743.50;;;15.79;22.56
40205;BME280;26963;42.666;23.366;2023-03-14T09:55:10;94737.75;;;15.90;22.97
40205;BME280;26963;42.666;23.366;2023-03-14T09:57:36;94721.31;;;15.82;23.55
40205;BME280;26963;42.666;23.366;2023-03-14T10:00:09;94735.56;;;16.04;23.29
40205;BME280;26963;42.666;23.366;2023-03-14T10:02:41;94731.00;;;16.17;23.20
40205;BME280;26963;42.666;23.366;2023-03-14T10:05:14;94711.53;;;16.11;23.67
40205;BME280;26963;42.666;23.366;2023-03-14T10:07:40;94724.91;;;16.08;23.83
40205;BME280;26963;42.666;23.366;2023-03-14T10:10:32;94720.31;;;16.21;23.70
40205;BME280;26963;42.666;23.366;2023-03-14T10:15:38;94712.88;;;16.05;23.89
40205;BME280;26963;42.666;23.366;2023-03-14T10:18:10;94692.44;;;15.62;24.42
40205;BME280;26963;42.666;23.366;2023-03-14T10:20:46;94574.56;;;14.87;24.87
40205;BME280;26963;42.666;23.366;2023-03-14T10:26:03;94687.94;;;15.66;25.08
40205;BME280;26963;42.666;23.366;2023-03-14T10:28:53;94677.88;;;15.54;25.25
40205;BME280;26963;42.666;23.366;2023-03-14T10:31:18;94662.03;;;15.53;25.54
40205;BME280;26963;42.666;23.366;2023-03-14T10:33:58;94672.09;;;15.64;25.86
40205;BME280;26963;42.666;23.366;2023-03-14T10:36:27;94585.78;;;15.31;25.90
40205;BME280;26963;42.666;23.366;2023-03-14T10:41:48;94647.91;;;16.23;25.06
40205;BME280;26963;42.666;23.366;2023-03-14T10:44:20;94586.97;;;15.76;25.25
40205;BME280;26963;42.666;23.366;2023-03-14T10:46:56;94625.81;;;16.08;25.26
40205;BME280;26963;42.666;23.366;2023-03-14T10:49:35;94561.47;;;15.86;24.95
40205;BME280;26963;42.666;23.366;2023-03-14T10:52:14;94604.25;;;16.08;24.90
40205;BME280;26963;42.666;23.366;2023-03-14T10:54:40;94576.78;;;15.94;24.98
40205;BME280;26963;42.666;23.366;2023-03-14T10:57:06;94584.53;;;15.95;24.86
40205;BME280;26963;42.666;23.366;2023-03-14T10:59:36;94559.03;;;15.93;24.67
40205;BME280;26963;42.666;23.366;2023-03-14T11:05:21;94583.56;;;16.37;24.72
40205;BME280;26963;42.666;23.366;2023-03-14T11:07:52;94520.81;;;16.03;24.59
40205;BME280;26963;42.666;23.366;2023-03-14T11:18:51;94542.13;;;16.95;24.70
40205;BME280;26963;42.666;23.366;2023-03-14T11:27:23;94490.00;;;17.23;23.92
40205;BME280;26963;42.666;23.366;2023-03-14T11:30:17;94509.66;;;17.52;23.42
40205;BME280;26963;42.666;23.366;2023-03-14T11:33:01;94499.03;;;17.59;23.13
40205;BME280;26963;42.666;23.366;2023-03-14T11:35:43;94474.69;;;17.43;23.18
40205;BME280;26963;42.666;23.366;2023-03-14T11:41:10;94489.69;;;17.56;23.08
40205;BME280;26963;42.666;23.366;2023-03-14T11:43:39;94475.91;;;17.17;23.90
40205;BME280;26963;42.666;23.366;2023-03-14T11:49:08;94418.50;;;16.92;24.15
40205;BME280;26963;42.666;23.366;2023-03-14T11:51:39;94392.16;;;16.89;23.21
40205;BME280;26963;42.666;23.366;2023-03-14T11:56:50;94454.63;;;17.60;23.12
40205;BME280;26963;42.666;23.366;2023-03-14T11:59:29;94433.84;;;17.48;23.01
40205;BME280;26963;42.666;23.366;2023-03-14T12:02:16;94436.41;;;17.57;22.96
40205;BME280;26963;42.666;23.366;2023-03-14T12:07:29;94434.53;;;17.77;23.61
40205;BME280;26963;42.666;23.366;2023-03-14T12:09:59;94416.91;;;17.83;23.35
40205;BME280;26963;42.666;23.366;2023-03-14T12:12:26;94417.34;;;18.01;23.26
40205;BME280;26963;42.666;23.366;2023-03-14T12:14:59;94404.25;;;17.87;23.46
40205;BME280;26963;42.666;23.366;2023-03-14T12:20:18;94403.03;;;17.85;24.34
40205;BME280;26963;42.666;23.366;2023-03-14T12:22:51;94389.56;;;17.88;25.03
40205;BME280;26963;42.666;23.366;2023-03-14T12:25:26;94384.50;;;17.87;26.33
40205;BME280;26963;42.666;23.366;2023-03-14T12:41:19;94363.44;;;17.44;24.54
40205;BME280;26963;42.666;23.366;2023-03-14T12:43:46;94362.31;;;17.46;23.56
40205;BME280;26963;42.666;23.366;2023-03-14T12:48:45;94358.91;;;17.17;25.15
40205;BME280;26963;42.666;23.366;2023-03-14T12:51:14;94202.41;;;16.03;25.13
40205;BME280;26963;42.666;23.366;2023-03-14T13:04:34;94266.56;;;16.10;24.42
40205;BME280;26963;42.666;23.366;2023-03-14T13:07:02;94310.44;;;16.35;24.46
40205;BME280;26963;42.666;23.366;2023-03-14T13:12:14;94322.81;;;16.36;25.39
40205;BME280;26963;42.666;23.366;2023-03-14T13:14:47;94297.69;;;16.20;24.62
40205;BME280;26963;42.666;23.366;2023-03-14T13:17:14;94315.94;;;16.39;24.05
40205;BME280;26963;42.666;23.366;2023-03-14T13:19:40;94294.94;;;16.32;24.30
40205;BME280;26963;42.666;23.366;2023-03-14T13:22:34;94304.91;;;16.44;24.16
40205;BME280;26963;42.666;23.366;2023-03-14T13:25:04;94299.94;;;16.46;23.73
40205;BME280;26963;42.666;23.366;2023-03-14T13:27:35;94278.94;;;16.39;24.27
40205;BME280;26963;42.666;23.366;2023-03-14T13:30:15;94287.47;;;16.41;24.19
40205;BME280;26963;42.666;23.366;2023-03-14T13:32:43;94285.03;;;16.36;23.35
40205;BME280;26963;42.666;23.366;2023-03-14T13:37:58;94189.69;;;15.75;24.75
40205;BME280;26963;42.666;23.366;2023-03-14T13:40:29;94257.31;;;16.23;23.89
40205;BME280;26963;42.666;23.366;2023-03-14T13:43:16;94255.69;;;16.35;24.36
40205;BME280;26963;42.666;23.366;2023-03-14T13:46:23;94238.78;;;16.38;23.56
40205;BME280;26963;42.666;23.366;2023-03-14T13:49:03;94241.88;;;16.24;24.30
40205;BME280;26963;42.666;23.366;2023-03-14T13:51:29;94222.13;;;16.20;23.86
40205;BME280;26963;42.666;23.366;2023-03-14T13:53:57;94222.69;;;16.25;23.87
40205;BME280;26963;42.666;23.366;2023-03-14T13:56:30;94174.47;;;15.95;24.35
40205;BME280;26963;42.666;23.366;2023-03-14T13:58:56;94219.63;;;16.27;23.67
40205;BME280;26963;42.666;23.366;2023-03-14T14:01:27;94194.72;;;16.18;24.22
40205;BME280;26963;42.666;23.366;2023-03-14T14:03:57;94218.66;;;16.35;23.51
40205;BME280;26963;42.666;23.366;2023-03-14T14:06:29;94186.63;;;16.18;23.13
40205;BME280;26963;42.666;23.366;2023-03-14T14:08:56;94201.41;;;16.24;23.29
40205;BME280;26963;42.666;23.366;2023-03-14T14:14:06;94171.16;;;16.02;23.30
40205;BME280;26963;42.666;23.366;2023-03-14T14:16:34;94165.00;;;16.02;23.41
40205;BME280;26963;42.666;23.366;2023-03-14T14:19:00;94173.44;;;16.00;23.83
40205;BME280;26963;42.666;23.366;2023-03-14T14:21:27;94161.59;;;16.05;23.65
40205;BME280;26963;42.666;23.366;2023-03-14T14:23:53;94161.69;;;16.08;24.71
40205;BME280;26963;42.666;23.366;2023-03-14T14:26:19;94112.59;;;15.74;24.08